Observations
| Time | Sensor | AQI | SAQ | Temp °C | Hum % | Pres Pa | CO μg/m³ | H₂S μg/m³ | NO μg/m³ | NO₂ μg/m³ | O₃ μg/m³ | SO₂ μg/m³ | CO₂e PPM | VOC PPM | PM1 μg/m³ | PM2.5 μg/m³ | PM4 μg/m³ | PM10 μg/m³ | TPS µm |
|---|---|---|---|---|---|---|---|---|---|---|---|---|---|---|---|---|---|---|---|
| Wednesday 12 August 2026 | |||||||||||||||||||
| 09:33 | Trim Market St | 2 | 22.9 | 70 | 52,005 | 0.31 | 0 | 1.57 | 23.6 | 41.07 | 0 | 3.56 | 5.02 | 9.42 | |||||
| 09:31 | Trim Market St | 2 | 22.6 | 70 | 51,279 | 0.27 | 0 | 1.25 | 20.56 | 39.08 | 0 | 4.28 | 5.49 | 8.16 | |||||
| 09:31 | Trim Patrick St | 2 | 22.8 | 68 | 38,460 | 0.05 | 2.26 | 1.5 | 17.89 | 45.44 | 2.14 | 8.86 | 12.49 | 13.74 | |||||
| 09:27 | Trim Market St | 2 | 22.3 | 70 | 49,160 | 0.27 | 0 | 1.34 | 12.97 | 45.47 | 0 | 5.7 | 6.91 | 10.03 | |||||
| 09:27 | Trim Patrick St | 2 | 22.5 | 68 | 38,460 | 0.04 | 0 | 1.42 | 12.27 | 46.06 | 1.32 | 9.71 | 13.95 | 15.34 | |||||
| 09:26 | Trim Patrick St | 2 | 22.5 | 69 | 38,460 | 0.03 | 0 | 1.53 | 12.88 | 43.52 | 1.68 | 8 | 12.43 | 13.67 | |||||
| 09:25 | Trim Patrick St | 2 | 22.5 | 69 | 38,460 | 0.04 | 0.34 | 1.44 | 12.62 | 49.99 | 1.43 | 8 | 13.2 | 14.52 | |||||
| 09:24 | Trim Market St | 2 | 22.1 | 71 | 47,080 | 0.26 | 0 | 1.47 | 17.43 | 47.95 | 0 | 5.7 | 6.89 | 10.02 | |||||
| 09:24 | Trim Patrick St | 2 | 22.4 | 69 | 38,460 | 0.05 | 1.3 | 1.48 | 16.91 | 38.64 | 1.5 | 8 | 11.71 | 12.88 | |||||
| 09:23 | Trim Patrick St | 2 | 22.4 | 69 | 38,460 | 0.06 | 2.07 | 1.61 | 17.67 | 38.43 | 1.54 | 8.86 | 12.42 | 13.66 | |||||
| 09:22 | Trim Patrick St | 2 | 22.3 | 69 | 38,460 | 0.06 | 5.4 | 1.5 | 31.27 | 53.36 | 2.03 | 8 | 13.87 | 15.25 | |||||
| 09:21 | Trim Patrick St | 2 | 22.3 | 69 | 38,460 | 0.06 | 0 | 1.31 | 12.8 | 47.08 | 0.76 | 8 | 13.2 | 14.52 | |||||
| 09:20 | Trim Patrick St | 2 | 22.2 | 69 | 38,460 | 0.06 | 0 | 1.23 | 4.53 | 29.9 | 0.58 | 7.14 | 11.71 | 12.88 | |||||
| 09:19 | Trim Patrick St | 2 | 22.2 | 70 | 38,460 | 0.06 | 0 | 1.21 | 7.22 | 40.79 | 1.21 | 7.14 | 10.96 | 12.06 | |||||
| 09:19 | Trim Market St | 2 | 21.8 | 72 | 43,584 | 0.28 | 0 | 1.63 | 15.62 | 45.6 | 0 | 4.99 | 6.37 | 10 | |||||
| 09:18 | Trim Patrick St | 2 | 22.2 | 70 | 38,460 | 0.08 | 0.54 | 1.21 | 13.11 | 42.82 | 0.89 | 8 | 13.11 | 14.42 | |||||
| 09:18 | Trim Market St | 2 | 21.8 | 72 | 42,433 | 0.27 | 0 | 1.38 | 16.28 | 42.99 | 0 | 2.14 | 2.97 | 5.06 | |||||
| 09:17 | Trim Patrick St | 2 | 22.2 | 70 | 38,460 | 0.08 | 2.18 | 1.19 | 17.96 | 41.14 | 1.11 | 8.86 | 13.82 | 15.21 | |||||
| 09:17 | Trim Market St | 2 | 21.7 | 72 | 41,100 | 0.28 | 0 | 1.26 | 18.33 | 48.98 | 0 | 4.99 | 5.86 | 9.38 | |||||
| 09:16 | Trim Patrick St | 2 | 22.1 | 69 | 38,460 | 0.11 | 1.13 | 1.15 | 23.94 | 39.19 | 1.39 | 7.14 | 12.42 | 13.66 | |||||